createdAt,value
2022-11-24T00:00:11.982Z,2.78
2022-11-24T00:02:57.232Z,2.60
2022-11-24T00:05:42.494Z,2.50
2022-11-24T00:08:27.458Z,2.95
2022-11-24T00:11:18.133Z,2.92
2022-11-24T00:14:04.660Z,3.28
2022-11-24T00:16:49.931Z,2.67
2022-11-24T00:19:34.976Z,2.65
2022-11-24T00:22:19.850Z,2.28
2022-11-24T00:25:05.299Z,3.25
2022-11-24T00:27:50.262Z,2.88
2022-11-24T00:30:35.694Z,2.83
2022-11-24T00:33:20.657Z,3.00
2022-11-24T00:36:05.813Z,3.17
2022-11-24T00:38:55.563Z,2.90
2022-11-24T00:41:40.982Z,2.95
2022-11-24T00:44:25.976Z,2.53
2022-11-24T00:47:11.010Z,2.45
2022-11-24T00:49:56.498Z,2.63
2022-11-24T00:52:41.920Z,2.45
2022-11-24T00:55:26.757Z,2.08
2022-11-24T00:58:11.890Z,2.08
2022-11-24T01:01:17.961Z,2.20
2022-11-24T01:04:03.429Z,2.00
2022-11-24T01:06:48.788Z,2.75
2022-11-24T01:09:33.803Z,1.95
2022-11-24T01:12:19.043Z,2.67
2022-11-24T01:15:04.558Z,2.03
2022-11-24T01:17:49.537Z,1.92
2022-11-24T01:20:36.632Z,1.95
2022-11-24T01:23:21.729Z,1.98
2022-11-24T01:26:08.602Z,2.00
2022-11-24T01:28:58.012Z,1.70
2022-11-24T01:31:42.960Z,1.67
2022-11-24T01:34:28.295Z,1.70
2022-11-24T01:37:13.496Z,2.03
2022-11-24T01:39:58.685Z,2.05
2022-11-24T01:42:51.505Z,2.00
2022-11-24T01:45:41.397Z,2.08
2022-11-24T01:48:40.794Z,2.47
2022-11-24T01:51:29.733Z,1.70
2022-11-24T01:54:18.295Z,1.75
2022-11-24T01:57:11.471Z,2.22
2022-11-24T02:00:01.913Z,1.83
2022-11-24T02:02:47.292Z,1.55
2022-11-24T02:05:51.292Z,1.80
2022-11-24T02:08:48.984Z,1.88
2022-11-24T02:11:38.395Z,1.83
2022-11-24T02:14:24.928Z,1.60
2022-11-24T02:17:10.592Z,1.63
2022-11-24T02:20:01.893Z,1.83
2022-11-24T02:23:09.654Z,1.38
2022-11-24T02:26:26.592Z,1.42
2022-11-24T02:29:13.324Z,2.50
2022-11-24T02:32:04.700Z,1.58
2022-11-24T02:34:49.940Z,1.73
2022-11-24T02:37:35.083Z,2.03
2022-11-24T02:40:27.056Z,1.70
2022-11-24T02:43:20.609Z,1.73
2022-11-24T02:46:06.789Z,2.08
2022-11-24T02:48:51.949Z,1.42
2022-11-24T02:51:37.124Z,1.58
2022-11-24T02:54:22.617Z,1.50
2022-11-24T02:57:07.754Z,1.75
2022-11-24T02:59:52.840Z,1.38
2022-11-24T03:02:37.929Z,2.35
2022-11-24T03:05:23.656Z,2.03
2022-11-24T03:08:08.646Z,1.63
2022-11-24T03:10:54.489Z,1.50
2022-11-24T03:13:39.707Z,1.75
2022-11-24T03:16:24.858Z,1.27
2022-11-24T03:19:09.978Z,1.58
2022-11-24T03:21:55.308Z,1.27
2022-11-24T03:24:40.529Z,1.20
2022-11-24T03:27:25.815Z,1.55
2022-11-24T03:30:11.913Z,1.63
2022-11-24T03:32:57.176Z,1.90
2022-11-24T03:35:42.452Z,1.48
2022-11-24T03:38:27.680Z,2.03
2022-11-24T03:41:13.451Z,1.88
2022-11-24T03:43:58.475Z,1.40
2022-11-24T03:46:43.528Z,1.65
2022-11-24T03:49:28.838Z,1.42
2022-11-24T03:52:13.997Z,1.42
2022-11-24T03:54:58.900Z,1.83
2022-11-24T03:57:43.753Z,2.10
2022-11-24T04:00:29.118Z,3.05
2022-11-24T04:03:14.492Z,2.80
2022-11-24T04:05:59.619Z,1.83
2022-11-24T04:08:44.641Z,2.40
2022-11-24T04:11:48.099Z,1.92
2022-11-24T04:14:33.755Z,1.90
2022-11-24T04:17:19.265Z,2.28
2022-11-24T04:20:05.306Z,2.00
2022-11-24T04:22:51.694Z,2.40
2022-11-24T04:25:37.156Z,2.58
2022-11-24T04:28:22.553Z,1.80
2022-11-24T04:31:07.759Z,1.98
2022-11-24T04:33:52.798Z,1.90
2022-11-24T04:36:37.867Z,2.17
2022-11-24T04:39:26.288Z,1.90
2022-11-24T04:42:13.470Z,2.60
2022-11-24T04:44:58.736Z,1.70
2022-11-24T04:47:43.802Z,1.80
2022-11-24T04:50:28.945Z,1.20
2022-11-24T04:53:14.428Z,2.10
2022-11-24T04:55:59.892Z,1.55
2022-11-24T04:58:48.358Z,1.63
2022-11-24T05:01:33.886Z,1.73
2022-11-24T05:04:20.329Z,1.85
2022-11-24T05:07:05.690Z,1.85
2022-11-24T05:10:09.259Z,1.50
2022-11-24T05:12:56.911Z,21.73
2022-11-24T05:15:42.118Z,4.07
2022-11-24T05:18:27.303Z,1.83
2022-11-24T05:21:12.405Z,1.10
2022-11-24T05:23:57.901Z,1.00
2022-11-24T05:26:43.176Z,1.00
2022-11-24T05:29:28.063Z,0.80
2022-11-24T05:32:13.317Z,1.10
2022-11-24T05:35:00.569Z,1.75
2022-11-24T05:37:45.792Z,1.60
2022-11-24T05:40:31.679Z,1.50
2022-11-24T05:43:17.072Z,1.38
2022-11-24T05:46:02.315Z,1.92
2022-11-24T05:48:47.660Z,2.25
2022-11-24T05:51:33.343Z,2.63
2022-11-24T05:54:18.713Z,2.45
2022-11-24T05:57:03.751Z,2.05
2022-11-24T05:59:48.967Z,2.50
2022-11-24T06:02:34.225Z,1.80
2022-11-24T06:05:19.325Z,2.22
2022-11-24T06:08:06.874Z,3.63
2022-11-24T06:10:51.969Z,3.50
2022-11-24T06:13:36.916Z,3.15
2022-11-24T06:16:23.026Z,1.98
2022-11-24T06:19:10.555Z,2.10
2022-11-24T06:21:55.476Z,1.38
2022-11-24T06:24:40.763Z,1.70
2022-11-24T06:27:26.411Z,2.58
2022-11-24T06:30:12.525Z,1.65
2022-11-24T06:32:57.758Z,1.75
2022-11-24T06:35:42.932Z,2.20
2022-11-24T06:38:27.923Z,4.85
2022-11-24T06:41:15.029Z,2.83
2022-11-24T06:44:02.793Z,1.92
2022-11-24T06:46:48.371Z,1.48
2022-11-24T06:49:33.391Z,1.20
2022-11-24T06:52:18.629Z,1.17
2022-11-24T06:55:04.150Z,1.48
2022-11-24T06:57:49.463Z,1.55
2022-11-24T07:00:34.633Z,1.67
2022-11-24T07:03:20.112Z,2.20
2022-11-24T07:06:05.455Z,2.40
2022-11-24T07:08:51.246Z,3.10
2022-11-24T07:11:36.874Z,3.28
2022-11-24T07:14:21.882Z,2.85
2022-11-24T07:17:07.460Z,2.75
2022-11-24T07:19:52.663Z,3.25
2022-11-24T07:22:37.973Z,3.92
2022-11-24T07:25:24.741Z,5.93
2022-11-24T07:28:09.847Z,7.07
2022-11-24T07:30:55.144Z,6.55
2022-11-24T07:33:40.779Z,5.55
2022-11-24T07:36:25.738Z,4.88
2022-11-24T07:39:11.071Z,4.35
2022-11-24T07:41:56.292Z,4.57
2022-11-24T07:44:41.626Z,4.28
2022-11-24T07:47:27.055Z,4.75
2022-11-24T07:50:13.108Z,4.53
2022-11-24T07:53:03.485Z,4.22
2022-11-24T07:55:56.406Z,3.70
2022-11-24T07:58:41.545Z,2.97
2022-11-24T08:01:26.884Z,2.75
2022-11-24T08:04:12.196Z,2.47
2022-11-24T08:06:57.261Z,3.17
2022-11-24T08:09:42.310Z,3.00
2022-11-24T08:12:27.559Z,3.15
2022-11-24T08:15:12.592Z,3.78
2022-11-24T08:18:01.215Z,2.85
2022-11-24T08:20:46.192Z,3.45
2022-11-24T08:23:32.004Z,3.42
2022-11-24T08:26:20.222Z,3.08
2022-11-24T08:29:05.014Z,3.58
2022-11-24T08:31:50.487Z,3.90
2022-11-24T08:34:43.232Z,4.10
2022-11-24T08:37:29.372Z,4.35
2022-11-24T08:40:14.761Z,4.10
2022-11-24T08:43:00.774Z,4.30
2022-11-24T08:45:45.997Z,4.15
2022-11-24T08:48:31.647Z,3.85
2022-11-24T08:51:20.486Z,3.88
2022-11-24T08:54:05.389Z,4.55
2022-11-24T08:56:50.705Z,4.03
2022-11-24T08:59:35.926Z,4.13
2022-11-24T09:02:20.864Z,4.18
2022-11-24T09:05:22.493Z,4.70
2022-11-24T09:08:11.043Z,4.75
2022-11-24T09:11:05.253Z,5.80
2022-11-24T09:13:50.326Z,5.38
2022-11-24T09:16:36.251Z,6.30
2022-11-24T09:19:21.177Z,5.50
2022-11-24T09:22:06.140Z,4.57
2022-11-24T09:24:51.117Z,5.07
2022-11-24T09:27:36.687Z,5.97
2022-11-24T09:30:23.126Z,5.28
2022-11-24T09:33:08.095Z,5.13
2022-11-24T09:35:53.034Z,6.25
2022-11-24T09:38:37.983Z,5.75
2022-11-24T09:42:02.293Z,6.15
2022-11-24T09:44:59.106Z,5.25
2022-11-24T09:48:17.246Z,6.43
2022-11-24T09:51:04.212Z,5.40
2022-11-24T09:53:53.532Z,7.55
2022-11-24T09:56:41.612Z,8.20
2022-11-24T09:59:27.507Z,11.13
2022-11-24T10:02:13.900Z,6.38
2022-11-24T10:04:59.019Z,6.43
2022-11-24T10:07:57.690Z,5.43
2022-11-24T10:10:57.563Z,5.68
2022-11-24T10:14:04.201Z,6.18
2022-11-24T10:16:57.369Z,8.00
2022-11-24T10:19:56.389Z,6.53
2022-11-24T10:23:02.340Z,7.03
2022-11-24T10:25:47.178Z,6.40
2022-11-24T10:28:55.021Z,6.40
2022-11-24T10:31:45.684Z,6.25
2022-11-24T10:35:06.088Z,6.50
2022-11-24T10:38:10.271Z,6.18
2022-11-24T10:41:07.574Z,7.35
2022-11-24T10:43:52.805Z,7.40
2022-11-24T10:46:39.506Z,5.47
2022-11-24T10:49:30.003Z,7.68
2022-11-24T10:52:16.635Z,7.00
2022-11-24T10:55:04.157Z,6.75
2022-11-24T10:57:49.232Z,6.72
2022-11-24T11:00:35.844Z,7.22
2022-11-24T11:03:24.742Z,5.95
2022-11-24T11:06:24.425Z,6.32
2022-11-24T11:09:10.095Z,5.55
2022-11-24T11:11:55.594Z,6.75
2022-11-24T11:14:40.851Z,7.20
2022-11-24T11:17:37.047Z,6.30
2022-11-24T11:20:35.540Z,4.85
2022-11-24T11:23:22.130Z,4.45
2022-11-24T11:26:22.065Z,5.97
2022-11-24T11:35:33.527Z,6.07
2022-11-24T11:38:19.888Z,5.85
2022-11-24T11:41:10.786Z,4.88
2022-11-24T11:44:11.913Z,5.00
2022-11-24T11:46:59.018Z,5.28
2022-11-24T11:49:45.051Z,5.55
2022-11-24T11:52:51.997Z,4.38
2022-11-24T11:55:42.026Z,5.55
2022-11-24T11:59:04.866Z,4.63
2022-11-24T12:02:04.178Z,5.07
2022-11-24T12:04:53.636Z,5.32
2022-11-24T12:08:08.018Z,4.57
2022-11-24T12:11:27.346Z,4.88
2022-11-24T12:14:55.528Z,5.70
2022-11-24T12:17:51.027Z,4.93
2022-11-24T12:20:44.999Z,5.95
2022-11-24T12:24:03.850Z,3.97
2022-11-24T12:26:57.125Z,3.90
2022-11-24T12:30:05.715Z,4.55
2022-11-24T12:33:10.864Z,4.82
2022-11-24T12:36:10.692Z,4.18
2022-11-24T12:39:13.927Z,4.95
2022-11-24T12:42:10.831Z,4.43
2022-11-24T12:45:06.250Z,4.95
2022-11-24T12:48:21.062Z,4.93
2022-11-24T12:51:17.201Z,4.10
2022-11-24T12:54:06.234Z,4.20
2022-11-24T12:57:09.399Z,4.30
2022-11-24T13:00:06.628Z,4.78
2022-11-24T13:03:15.439Z,5.20
2022-11-24T13:06:12.621Z,5.22
2022-11-24T13:08:57.627Z,5.20
2022-11-24T13:11:57.909Z,4.93
2022-11-24T13:14:48.826Z,4.72
2022-11-24T13:17:52.473Z,5.15
2022-11-24T13:20:40.342Z,5.10
2022-11-24T13:23:28.476Z,4.50
2022-11-24T13:26:15.981Z,4.82
2022-11-24T13:29:13.472Z,4.63
2022-11-24T13:32:10.696Z,4.75
2022-11-24T13:35:03.565Z,4.47
2022-11-24T13:37:51.756Z,4.22
2022-11-24T13:40:38.691Z,4.40
2022-11-24T13:43:23.701Z,5.00
2022-11-24T13:46:09.816Z,4.97
2022-11-24T13:48:59.085Z,4.63
2022-11-24T13:51:44.353Z,4.03
2022-11-24T13:54:29.626Z,5.65
2022-11-24T13:57:35.342Z,4.03
2022-11-24T14:01:05.631Z,4.82
2022-11-24T14:04:31.990Z,4.40
2022-11-24T14:07:18.201Z,5.00
2022-11-24T14:10:03.894Z,4.28
2022-11-24T14:13:23.970Z,4.22
2022-11-24T14:16:08.861Z,5.28
2022-11-24T14:18:54.443Z,4.82
2022-11-24T14:21:44.295Z,5.47
2022-11-24T14:24:39.903Z,5.57
2022-11-24T14:27:30.366Z,5.47
2022-11-24T14:30:15.444Z,5.40
2022-11-24T14:33:02.915Z,4.70
2022-11-24T14:35:50.998Z,4.50
2022-11-24T14:38:36.362Z,5.30
2022-11-24T14:41:26.249Z,5.13
2022-11-24T14:44:34.189Z,5.00
2022-11-24T14:47:32.635Z,5.75
2022-11-24T14:50:22.022Z,5.00
2022-11-24T14:53:14.942Z,5.70
2022-11-24T14:56:08.837Z,3.92
2022-11-24T14:58:55.452Z,4.28
2022-11-24T15:01:41.015Z,5.28
2022-11-24T15:05:02.223Z,4.25
2022-11-24T15:07:39.588Z,5.75
2022-11-24T15:10:38.574Z,4.50
2022-11-24T15:13:24.957Z,4.27
2022-11-24T15:16:16.383Z,4.55
2022-11-24T15:19:02.633Z,5.18
2022-11-24T15:21:47.831Z,4.95
2022-11-24T15:24:32.966Z,4.65
2022-11-24T15:27:18.455Z,4.97
2022-11-24T15:30:03.488Z,4.25
2022-11-24T15:32:53.724Z,5.30
2022-11-24T15:35:38.890Z,5.05
2022-11-24T15:38:24.165Z,5.15
2022-11-24T15:41:21.180Z,5.25
2022-11-24T15:44:06.546Z,4.65
2022-11-24T15:46:51.999Z,5.13
2022-11-24T15:49:37.408Z,5.85
2022-11-24T15:52:22.828Z,4.82
2022-11-24T15:55:17.507Z,5.70
2022-11-24T15:58:02.384Z,5.07
2022-11-24T16:00:47.595Z,4.75
2022-11-24T16:03:48.958Z,5.35
2022-11-24T16:06:34.578Z,5.68
2022-11-24T16:09:19.623Z,4.45
2022-11-24T16:12:05.101Z,5.60
2022-11-24T16:14:50.692Z,5.25
2022-11-24T16:17:35.618Z,4.78
2022-11-24T16:20:21.378Z,4.93
2022-11-24T16:23:06.493Z,4.25
2022-11-24T16:25:51.848Z,4.05
2022-11-24T16:28:36.998Z,4.72
2022-11-24T16:31:22.107Z,5.07
2022-11-24T16:34:07.248Z,4.25
2022-11-24T16:36:52.242Z,3.55
2022-11-24T16:39:37.575Z,3.97
2022-11-24T16:42:22.819Z,3.72
2022-11-24T16:45:12.118Z,4.07
2022-11-24T16:47:57.267Z,4.65
2022-11-24T16:50:42.638Z,4.00
2022-11-24T16:53:27.591Z,4.10
2022-11-24T16:56:14.296Z,4.03
2022-11-24T16:58:59.404Z,3.28
2022-11-24T17:01:46.590Z,3.42
2022-11-24T17:04:32.500Z,3.22
2022-11-24T17:07:18.347Z,3.42
2022-11-24T17:10:03.865Z,3.97
2022-11-24T17:12:48.762Z,10.23
2022-11-24T17:15:39.192Z,2.75
2022-11-24T17:18:28.010Z,2.25
2022-11-24T17:21:16.656Z,2.03
2022-11-24T17:24:05.433Z,2.57
2022-11-24T17:26:53.677Z,2.05
2022-11-24T17:29:38.908Z,2.30
2022-11-24T17:32:24.227Z,2.10
2022-11-24T17:35:09.319Z,2.15
2022-11-24T17:37:56.237Z,1.92
2022-11-24T17:40:46.578Z,2.00
2022-11-24T17:43:31.898Z,1.90
2022-11-24T17:46:17.661Z,2.28
2022-11-24T17:49:03.282Z,3.47
2022-11-24T17:51:50.423Z,3.20
2022-11-24T17:54:51.004Z,2.50
2022-11-24T17:57:36.303Z,4.43
2022-11-24T18:00:21.738Z,3.45
2022-11-24T18:03:06.929Z,2.85
2022-11-24T18:05:52.176Z,2.30
2022-11-24T18:08:39.187Z,2.38
2022-11-24T18:11:31.393Z,2.55
2022-11-24T18:14:17.339Z,2.92
2022-11-24T18:17:02.372Z,3.00
2022-11-24T18:19:48.063Z,3.67
2022-11-24T18:23:04.013Z,3.13
2022-11-24T18:25:38.943Z,3.85
2022-11-24T18:28:24.013Z,3.58
2022-11-24T18:31:11.731Z,3.80
2022-11-24T18:33:56.773Z,3.50
2022-11-24T18:36:42.162Z,4.55
2022-11-24T18:39:29.481Z,3.78
2022-11-24T18:42:15.644Z,3.70
2022-11-24T18:45:00.585Z,4.95
2022-11-24T18:47:45.791Z,4.47
2022-11-24T18:50:30.884Z,4.68
2022-11-24T18:53:15.798Z,3.58
2022-11-24T18:56:02.971Z,4.05
2022-11-24T18:58:48.249Z,3.40
2022-11-24T19:01:33.315Z,4.10
2022-11-24T19:04:18.634Z,4.45
2022-11-24T19:07:03.870Z,4.38
2022-11-24T19:09:49.205Z,4.25
2022-11-24T19:12:34.379Z,3.95
2022-11-24T19:15:19.530Z,5.28
2022-11-24T19:18:05.355Z,4.00
2022-11-24T19:20:50.720Z,4.95
2022-11-24T19:23:36.270Z,4.10
2022-11-24T19:26:21.613Z,4.30
2022-11-24T19:29:07.741Z,4.88
2022-11-24T19:31:54.053Z,4.40
2022-11-24T19:34:39.429Z,4.97
2022-11-24T19:37:24.665Z,5.38
2022-11-24T19:40:10.232Z,4.75
2022-11-24T19:42:55.264Z,4.72
2022-11-24T19:45:44.283Z,5.13
2022-11-24T19:48:34.704Z,4.85
2022-11-24T19:51:22.760Z,3.78
2022-11-24T19:54:10.250Z,4.22
2022-11-24T19:56:56.291Z,3.63
2022-11-24T19:59:41.681Z,3.08
2022-11-24T20:02:28.139Z,3.85
2022-11-24T20:05:13.740Z,3.30
2022-11-24T20:07:58.885Z,3.33
2022-11-24T20:10:44.562Z,2.75
2022-11-24T20:13:29.868Z,3.13
2022-11-24T20:16:17.677Z,2.33
2022-11-24T20:19:07.166Z,2.53
2022-11-24T20:21:53.137Z,2.03
2022-11-24T20:24:37.964Z,2.47
2022-11-24T20:27:22.904Z,2.40
2022-11-24T20:30:08.574Z,2.30
2022-11-24T20:32:53.904Z,2.88
2022-11-24T20:35:39.182Z,2.92
2022-11-24T20:38:24.176Z,3.00
2022-11-24T20:41:12.316Z,3.40
2022-11-24T20:44:00.067Z,3.17
2022-11-24T20:46:46.561Z,3.28
2022-11-24T20:49:31.792Z,2.85
2022-11-24T20:52:17.005Z,3.38
2022-11-24T20:55:03.912Z,3.00
2022-11-24T20:57:49.218Z,2.75
2022-11-24T21:00:34.233Z,2.45
2022-11-24T21:03:19.145Z,3.22
2022-11-24T21:06:04.275Z,3.05
2022-11-24T21:08:50.658Z,2.70
2022-11-24T21:11:37.466Z,2.95
2022-11-24T21:14:24.306Z,2.90
2022-11-24T21:17:09.495Z,2.53
2022-11-24T21:19:59.579Z,3.58
2022-11-24T21:22:46.214Z,2.70
2022-11-24T21:25:31.767Z,3.13
2022-11-24T21:28:17.047Z,3.28
2022-11-24T21:31:06.985Z,4.80
2022-11-24T21:33:53.867Z,3.95
2022-11-24T21:36:41.656Z,4.57
2022-11-24T21:39:27.309Z,3.88
2022-11-24T21:42:12.179Z,4.22
2022-11-24T21:45:00.591Z,3.92
2022-11-24T21:47:47.006Z,4.88
2022-11-24T21:50:32.913Z,3.75
2022-11-24T21:53:18.365Z,4.55
2022-11-24T21:56:07.145Z,4.43
2022-11-24T21:58:57.879Z,3.80
2022-11-24T22:01:42.886Z,4.18
2022-11-24T22:04:28.055Z,3.33
2022-11-24T22:07:13.032Z,4.20
2022-11-24T22:09:57.997Z,4.00
2022-11-24T22:12:43.162Z,3.80
2022-11-24T22:15:28.371Z,4.53
2022-11-24T22:18:13.272Z,3.83
2022-11-24T22:20:58.364Z,3.97
2022-11-24T22:23:44.216Z,4.25
2022-11-24T22:26:30.633Z,4.53
2022-11-24T22:29:15.816Z,4.10
2022-11-24T22:32:01.080Z,4.53
2022-11-24T22:34:46.247Z,4.18
2022-11-24T22:37:31.368Z,4.35
2022-11-24T22:40:16.934Z,4.80
2022-11-24T22:43:02.291Z,4.63
2022-11-24T22:45:47.310Z,4.55
2022-11-24T22:48:33.108Z,4.43
2022-11-24T22:51:20.424Z,4.38
2022-11-24T22:54:06.211Z,3.88
2022-11-24T22:56:51.299Z,4.22
2022-11-24T22:59:36.426Z,3.63
2022-11-24T23:02:21.286Z,4.43
2022-11-24T23:05:06.533Z,4.55
2022-11-24T23:07:51.580Z,3.30
2022-11-24T23:10:36.843Z,4.30
2022-11-24T23:13:21.752Z,5.20
2022-11-24T23:16:10.130Z,4.03
2022-11-24T23:18:55.878Z,7.05
2022-11-24T23:21:41.167Z,5.60
2022-11-24T23:24:26.325Z,3.92
2022-11-24T23:27:11.324Z,3.95
2022-11-24T23:29:56.853Z,3.53
2022-11-24T23:32:41.966Z,3.92
2022-11-24T23:35:26.965Z,3.45
2022-11-24T23:38:12.255Z,4.53
2022-11-24T23:40:57.505Z,3.38
2022-11-24T23:43:43.120Z,4.05
2022-11-24T23:46:28.494Z,2.92
2022-11-24T23:49:13.538Z,3.55
2022-11-24T23:51:58.745Z,3.30
2022-11-24T23:54:44.155Z,3.58
2022-11-24T23:57:29.350Z,3.53
